createdAt,value
2022-09-27T00:02:52.541Z,97580.16
2022-09-27T00:07:56.033Z,97583.97
2022-09-27T00:12:59.441Z,97576.69
2022-09-27T00:18:03.202Z,97578.09
2022-09-27T00:23:06.584Z,97571.31
2022-09-27T00:28:10.037Z,97568.06
2022-09-27T00:33:13.201Z,97563.00
2022-09-27T00:38:16.831Z,97555.94
2022-09-27T00:43:23.627Z,97564.41
2022-09-27T00:48:31.744Z,97562.03
2022-09-27T00:53:41.924Z,97556.34
2022-09-27T00:58:53.334Z,97556.97
2022-09-27T01:04:17.063Z,97552.09
2022-09-27T01:09:21.458Z,97553.47
2022-09-27T01:14:34.076Z,97552.94
2022-09-27T01:20:22.047Z,97548.09
2022-09-27T01:25:26.479Z,97554.09
2022-09-27T01:31:00.214Z,97551.47
2022-09-27T01:36:12.019Z,97548.75
2022-09-27T01:41:26.595Z,97551.25
2022-09-27T01:46:42.456Z,97553.16
2022-09-27T01:52:09.258Z,97558.09
2022-09-27T01:57:17.591Z,97559.19
2022-09-27T02:02:26.576Z,97562.97
2022-09-27T02:08:18.905Z,97562.97
2022-09-27T02:13:58.911Z,97557.84
2022-09-27T02:19:40.626Z,97560.84
2022-09-27T02:24:53.075Z,97555.13
2022-09-27T02:30:05.958Z,97559.44
2022-09-27T02:35:16.240Z,97552.69
2022-09-27T02:40:20.581Z,97554.91
2022-09-27T02:45:28.384Z,97556.53
2022-09-27T02:50:55.218Z,97557.09
2022-09-27T02:56:26.802Z,97562.81
2022-09-27T03:02:13.799Z,97565.84
2022-09-27T03:07:36.519Z,97568.84
2022-09-27T03:12:39.852Z,97566.69
2022-09-27T03:17:43.473Z,97563.16
2022-09-27T03:23:05.397Z,97566.97
2022-09-27T03:28:09.370Z,97559.59
2022-09-27T03:33:14.254Z,97560.72
2022-09-27T03:38:32.961Z,97564.81
2022-09-27T03:43:36.368Z,97565.09
2022-09-27T03:48:40.899Z,97563.47
2022-09-27T03:53:44.427Z,97569.22
2022-09-27T03:58:48.268Z,97573.56
2022-09-27T04:03:52.590Z,97577.59
2022-09-27T04:09:09.466Z,97578.38
2022-09-27T04:14:32.901Z,97577.00
2022-09-27T04:19:56.589Z,97591.63
2022-09-27T04:25:01.333Z,97595.84
2022-09-27T04:30:15.420Z,97594.91
2022-09-27T04:35:48.695Z,97597.53
2022-09-27T04:40:52.429Z,97587.34
2022-09-27T04:45:56.634Z,97595.34
2022-09-27T04:51:02.249Z,97596.00
2022-09-27T04:56:06.245Z,97592.19
2022-09-27T05:01:11.418Z,97594.88
2022-09-27T05:06:33.276Z,97605.22
2022-09-27T05:11:43.255Z,97610.22
2022-09-27T05:16:54.115Z,97608.19
2022-09-27T05:22:16.171Z,97619.81
2022-09-27T05:27:20.698Z,97618.28
2022-09-27T05:32:24.489Z,97625.78
2022-09-27T05:37:58.783Z,97639.06
2022-09-27T05:43:04.487Z,97640.09
2022-09-27T05:48:07.939Z,97640.09
2022-09-27T05:53:19.164Z,97655.25
2022-09-27T05:58:23.302Z,97658.50
2022-09-27T06:03:37.103Z,97659.31
2022-09-27T06:09:03.761Z,97660.94
2022-09-27T06:14:08.654Z,97663.25
2022-09-27T06:19:23.720Z,97655.44
2022-09-27T06:24:27.139Z,97665.25
2022-09-27T06:29:31.038Z,97665.16
2022-09-27T06:34:37.649Z,97662.84
2022-09-27T06:39:41.222Z,97669.81
2022-09-27T06:45:13.889Z,97667.78
2022-09-27T06:50:54.172Z,97665.44
2022-09-27T06:56:01.584Z,97664.41
2022-09-27T07:01:14.532Z,97666.41
2022-09-27T07:06:40.604Z,97663.72
2022-09-27T07:11:57.504Z,97666.34
2022-09-27T07:17:00.753Z,97678.91
2022-09-27T07:22:11.134Z,97678.34
2022-09-27T07:27:16.072Z,97677.72
2022-09-27T07:32:19.836Z,97668.13
2022-09-27T07:37:24.675Z,97667.25
2022-09-27T07:42:28.686Z,97676.72
2022-09-27T07:47:33.573Z,97669.78
2022-09-27T07:52:52.989Z,97671.78
2022-09-27T07:58:31.814Z,97673.16
2022-09-27T08:03:37.722Z,97676.09
2022-09-27T08:08:41.336Z,97671.63
2022-09-27T08:13:46.288Z,97664.31
2022-09-27T08:18:49.929Z,97661.56
2022-09-27T08:24:11.927Z,97672.88
2022-09-27T08:29:40.942Z,97662.84
2022-09-27T08:34:44.280Z,97659.13
2022-09-27T08:39:48.277Z,97660.56
2022-09-27T08:45:12.415Z,97659.88
2022-09-27T08:50:28.067Z,97664.09
2022-09-27T08:55:49.950Z,97662.31
2022-09-27T09:01:19.528Z,97655.03
2022-09-27T09:07:42.249Z,97659.22
2022-09-27T09:12:58.751Z,97659.16
2022-09-27T09:18:22.765Z,97657.50
2022-09-27T09:23:59.885Z,97658.31
2022-09-27T09:29:37.998Z,97653.84
2022-09-27T09:34:47.605Z,97653.69
2022-09-27T09:39:54.867Z,97651.25
2022-09-27T09:45:02.668Z,97656.59
2022-09-27T09:50:34.171Z,97649.03
2022-09-27T09:55:40.600Z,97646.00
2022-09-27T10:00:45.943Z,97640.19
2022-09-27T10:05:50.157Z,97643.09
2022-09-27T10:10:54.459Z,97640.53
2022-09-27T10:16:04.463Z,97632.28
2022-09-27T10:21:20.730Z,97630.22
2022-09-27T10:26:24.741Z,97627.00
2022-09-27T10:31:36.398Z,97627.00
2022-09-27T10:37:14.425Z,97624.09
2022-09-27T10:42:33.955Z,97628.63
2022-09-27T10:47:38.610Z,97620.59
2022-09-27T10:53:06.368Z,97620.59
2022-09-27T10:58:20.416Z,97611.59
2022-09-27T11:03:24.931Z,97608.66
2022-09-27T11:08:33.321Z,97608.50
2022-09-27T11:13:59.391Z,97602.38
2022-09-27T11:19:24.607Z,97598.63
2022-09-27T11:24:56.398Z,97586.22
2022-09-27T11:30:13.330Z,97583.09
2022-09-27T11:35:45.612Z,97581.63
2022-09-27T11:41:15.080Z,97580.59
2022-09-27T11:46:38.540Z,97575.41
2022-09-27T11:52:04.461Z,97571.16
2022-09-27T11:57:35.364Z,97571.59
2022-09-27T12:03:13.046Z,97559.00
2022-09-27T12:08:27.070Z,97559.13
2022-09-27T12:13:47.023Z,97561.41
2022-09-27T12:18:52.580Z,97558.31
2022-09-27T12:24:24.871Z,97548.13
2022-09-27T12:29:45.901Z,97545.72
2022-09-27T12:35:10.924Z,97548.13
2022-09-27T12:40:20.515Z,97541.38
2022-09-27T12:45:43.692Z,97537.34
2022-09-27T12:50:53.694Z,97532.88
2022-09-27T12:56:18.649Z,97521.09
2022-09-27T13:01:25.295Z,97525.34
2022-09-27T13:06:29.270Z,97520.19
2022-09-27T13:11:47.701Z,97512.63
2022-09-27T13:16:51.352Z,97509.38
2022-09-27T13:21:58.144Z,97504.75
2022-09-27T13:27:28.044Z,97498.50
2022-09-27T13:32:35.942Z,97498.00
2022-09-27T13:37:55.723Z,97505.31
2022-09-27T13:43:13.084Z,97491.78
2022-09-27T13:48:27.846Z,97487.94
2022-09-27T13:53:38.544Z,97487.44
2022-09-27T13:59:01.812Z,97499.09
2022-09-27T14:04:41.035Z,97496.69
2022-09-27T14:09:49.510Z,97501.50
2022-09-27T14:15:04.464Z,97500.88
2022-09-27T14:20:34.614Z,97502.06
2022-09-27T14:25:46.424Z,97505.13
2022-09-27T14:31:07.260Z,97505.97
2022-09-27T14:36:33.078Z,97502.91
2022-09-27T14:41:41.482Z,97499.06
2022-09-27T14:47:19.465Z,97492.75
2022-09-27T14:52:34.098Z,97494.19
2022-09-27T14:57:40.083Z,97500.00
2022-09-27T15:02:44.304Z,97494.34
2022-09-27T15:07:48.673Z,97494.66
2022-09-27T15:12:55.322Z,97503.50
2022-09-27T15:17:59.945Z,97500.88
2022-09-27T15:23:05.874Z,97497.78
2022-09-27T15:28:12.293Z,97491.31
2022-09-27T15:33:29.475Z,97496.72
2022-09-27T15:38:46.606Z,97500.66
2022-09-27T15:43:52.429Z,97508.13
2022-09-27T15:49:19.959Z,97507.91
2022-09-27T15:54:25.997Z,97507.06
2022-09-27T15:59:34.869Z,97508.63
2022-09-27T16:04:38.200Z,97510.97
2022-09-27T16:09:41.575Z,97522.63
2022-09-27T16:14:45.211Z,97520.66
2022-09-27T16:19:48.648Z,97531.19
2022-09-27T16:24:52.123Z,97531.91
2022-09-27T16:29:55.394Z,97541.47
2022-09-27T16:34:59.032Z,97543.50
2022-09-27T16:40:04.329Z,97548.88
2022-09-27T16:45:11.835Z,97551.41
2022-09-27T16:50:17.446Z,97544.13
2022-09-27T16:55:21.089Z,97551.31
2022-09-27T17:00:24.575Z,97550.81
2022-09-27T17:05:27.861Z,97559.09
2022-09-27T17:10:31.597Z,97551.53
2022-09-27T17:15:37.249Z,97559.03
2022-09-27T17:20:41.004Z,97560.75
2022-09-27T17:25:44.282Z,97558.91
2022-09-27T17:30:47.514Z,97563.34
2022-09-27T17:35:59.232Z,97564.47
2022-09-27T17:41:07.665Z,97578.09
2022-09-27T17:46:11.151Z,97573.25
2022-09-27T17:51:14.568Z,97566.88
2022-09-27T17:56:17.947Z,97579.31
2022-09-27T18:01:23.199Z,97585.91
2022-09-27T18:06:26.561Z,97593.56
2022-09-27T18:11:30.092Z,97594.16
2022-09-27T18:16:36.710Z,97590.09
2022-09-27T18:21:40.567Z,97599.41
2022-09-27T18:26:44.876Z,97604.38
2022-09-27T18:31:49.148Z,97620.22
2022-09-27T18:36:52.648Z,97632.75
2022-09-27T18:41:56.093Z,97628.41
2022-09-27T18:47:00.007Z,97613.13
2022-09-27T18:52:05.010Z,97621.31
2022-09-27T18:57:08.596Z,97624.03
2022-09-27T19:02:11.748Z,97635.75
2022-09-27T19:07:15.091Z,97624.97
2022-09-27T19:12:18.339Z,97626.88
2022-09-27T19:17:21.742Z,97631.84
2022-09-27T19:22:25.161Z,97638.16
2022-09-27T19:27:30.748Z,97635.31
2022-09-27T19:32:33.848Z,97634.38
2022-09-27T19:37:37.346Z,97636.66
2022-09-27T19:42:43.524Z,97630.66
2022-09-27T19:47:47.753Z,97621.19
2022-09-27T19:52:51.769Z,97611.91
2022-09-27T19:57:57.044Z,97607.78
2022-09-27T20:03:00.683Z,97604.50
2022-09-27T20:08:04.277Z,97605.53
2022-09-27T20:13:08.017Z,97592.75
2022-09-27T20:18:12.458Z,97604.94
2022-09-27T20:23:18.172Z,97599.75
2022-09-27T20:28:22.347Z,97614.94
2022-09-27T20:33:26.869Z,97617.56
2022-09-27T20:38:30.184Z,97607.47
2022-09-27T20:43:33.437Z,97613.16
2022-09-27T20:48:36.667Z,97607.19
2022-09-27T20:53:42.024Z,97605.50
2022-09-27T20:58:49.105Z,97607.94
2022-09-27T21:03:57.595Z,97611.69
2022-09-27T21:09:03.950Z,97610.28
2022-09-27T21:14:07.616Z,97601.31
2022-09-27T21:19:11.241Z,97607.56
2022-09-27T21:24:14.849Z,97614.94
2022-09-27T21:29:18.399Z,97606.75
2022-09-27T21:34:21.774Z,97596.94
2022-09-27T21:39:31.436Z,97607.03
2022-09-27T21:44:41.203Z,97609.19
2022-09-27T21:49:46.879Z,97609.19
2022-09-27T21:54:50.084Z,97601.31
2022-09-27T21:59:54.831Z,97606.16
2022-09-27T22:05:00.599Z,97604.84
2022-09-27T22:10:06.055Z,97608.38
2022-09-27T22:15:10.193Z,97607.84
2022-09-27T22:20:13.689Z,97604.63
2022-09-27T22:25:17.212Z,97610.06
2022-09-27T22:30:20.632Z,97606.03
2022-09-27T22:35:24.072Z,97607.94
2022-09-27T22:40:27.214Z,97614.47
2022-09-27T22:45:30.503Z,97610.13
2022-09-27T22:50:34.037Z,97598.22
2022-09-27T22:55:38.302Z,97596.56
2022-09-27T23:00:42.112Z,97606.66
2022-09-27T23:05:45.619Z,97598.00
2022-09-27T23:10:48.727Z,97605.91
2022-09-27T23:15:52.428Z,97596.44
2022-09-27T23:20:58.991Z,97588.28
2022-09-27T23:26:06.253Z,97583.13
2022-09-27T23:31:14.915Z,97585.03
2022-09-27T23:36:20.407Z,97588.88
2022-09-27T23:41:24.211Z,97583.16
2022-09-27T23:46:27.912Z,97585.09
2022-09-27T23:51:31.461Z,97582.41
2022-09-27T23:56:34.787Z,97576.97
